createdAt,value
2017-01-04T00:01:56.518Z,0
2017-01-04T00:04:03.689Z,0
2017-01-04T00:06:15.928Z,0
2017-01-04T00:08:28.308Z,0
2017-01-04T00:10:35.601Z,0
2017-01-04T00:12:48.103Z,0
2017-01-04T00:15:00.602Z,0
2017-01-04T00:17:13.357Z,0
2017-01-04T00:19:25.821Z,0
2017-01-04T00:21:33.265Z,0
2017-01-04T00:23:45.571Z,0
2017-01-04T00:25:58.169Z,0
2017-01-04T00:28:10.804Z,0
2017-01-04T00:30:23.200Z,0
2017-01-04T00:32:35.494Z,0
2017-01-04T00:34:47.807Z,0
2017-01-04T00:37:00.504Z,0
2017-01-04T00:39:13.253Z,0
2017-01-04T00:41:25.590Z,0
2017-01-04T00:43:32.900Z,0
2017-01-04T00:45:45.317Z,0
2017-01-04T00:47:57.666Z,0
2017-01-04T00:50:10.139Z,0
2017-01-04T00:52:22.835Z,0
2017-01-04T00:54:35.214Z,0
2017-01-04T00:56:37.626Z,0
2017-01-04T00:58:49.871Z,0
2017-01-04T01:00:57.386Z,0
2017-01-04T01:03:09.588Z,0
2017-01-04T01:05:21.881Z,0
2017-01-04T01:07:34.353Z,0
2017-01-04T01:09:46.625Z,0
2017-01-04T01:11:59.079Z,0
2017-01-04T01:14:06.541Z,0
2017-01-04T01:16:18.858Z,0
2017-01-04T01:18:31.169Z,0
2017-01-04T01:20:43.707Z,0
2017-01-04T01:22:56.094Z,0
2017-01-04T01:25:03.751Z,0
2017-01-04T01:27:11.558Z,0
2017-01-04T01:29:23.939Z,0
2017-01-04T01:31:31.288Z,0
2017-01-04T01:33:43.732Z,0
2017-01-04T01:35:55.992Z,0
2017-01-04T01:38:08.466Z,0
2017-01-04T01:40:20.784Z,0
2017-01-04T01:42:33.012Z,0
2017-01-04T01:44:40.564Z,0
2017-01-04T01:46:52.805Z,0
2017-01-04T01:49:05.208Z,0
2017-01-04T01:51:17.475Z,0
2017-01-04T01:53:25.018Z,0
2017-01-04T01:55:37.252Z,0
2017-01-04T01:57:49.486Z,0
2017-01-04T02:00:02.294Z,0
2017-01-04T02:02:14.738Z,0
2017-01-04T02:04:27.107Z,0
2017-01-04T02:06:39.336Z,0
2017-01-04T02:08:51.564Z,0
2017-01-04T02:11:03.745Z,0
2017-01-04T02:13:10.954Z,0
2017-01-04T02:15:23.268Z,0
2017-01-04T02:17:35.435Z,0
2017-01-04T02:19:47.695Z,0
2017-01-04T02:22:00.061Z,0
2017-01-04T02:24:12.343Z,0
2017-01-04T02:26:24.497Z,0
2017-01-04T02:28:31.796Z,0
2017-01-04T02:30:44.266Z,0
2017-01-04T02:32:56.845Z,0
2017-01-04T02:35:09.416Z,0
2017-01-04T02:37:21.585Z,0
2017-01-04T02:39:34.331Z,0
2017-01-04T02:41:41.877Z,0
2017-01-04T02:43:54.514Z,0
2017-01-04T02:46:07.380Z,0
2017-01-04T02:48:19.736Z,0
2017-01-04T02:50:33.022Z,0
2017-01-04T02:52:46.197Z,0
2017-01-04T02:54:58.861Z,0
2017-01-04T02:57:11.179Z,0
2017-01-04T02:59:18.973Z,0
2017-01-04T03:01:31.244Z,0
2017-01-04T03:03:38.668Z,0
2017-01-04T03:05:51.092Z,0
2017-01-04T03:08:03.863Z,0
2017-01-04T03:10:06.596Z,0
2017-01-04T03:12:19.037Z,0
2017-01-04T03:14:26.285Z,0
2017-01-04T03:16:38.676Z,0
2017-01-04T03:18:45.971Z,0
2017-01-04T03:20:58.988Z,0
2017-01-04T03:23:12.269Z,0
2017-01-04T03:25:24.456Z,0
2017-01-04T03:27:38.869Z,0
2017-01-04T03:29:51.371Z,0
2017-01-04T03:32:04.283Z,0
2017-01-04T03:34:11.506Z,0
2017-01-04T03:36:23.757Z,0
2017-01-04T03:38:36.488Z,0
2017-01-04T03:40:48.791Z,0
2017-01-04T03:43:01.325Z,0
2017-01-04T03:45:14.129Z,0
2017-01-04T03:47:27.067Z,0
2017-01-04T03:49:34.301Z,0
2017-01-04T03:51:46.625Z,0
2017-01-04T03:53:59.539Z,0
2017-01-04T03:56:12.405Z,0
2017-01-04T03:58:25.636Z,0
2017-01-04T04:00:39.007Z,0
2017-01-04T04:02:51.288Z,0
2017-01-04T04:05:03.705Z,0
2017-01-04T04:07:16.278Z,0
2017-01-04T04:09:29.304Z,0
2017-01-04T04:11:41.671Z,0
2017-01-04T04:13:58.178Z,0
2017-01-04T04:16:10.728Z,0
2017-01-04T04:18:23.378Z,0
2017-01-04T04:20:36.209Z,0
2017-01-04T04:22:50.289Z,0
2017-01-04T04:25:04.045Z,0
2017-01-04T04:27:18.580Z,0
2017-01-04T04:29:26.416Z,0
2017-01-04T04:31:41.252Z,0
2017-01-04T04:33:55.663Z,0
2017-01-04T04:36:08.643Z,0
2017-01-04T04:38:16.726Z,0
2017-01-04T04:40:30.358Z,0
2017-01-04T04:42:44.593Z,0
2017-01-04T04:44:57.077Z,0
2017-01-04T04:47:09.652Z,0
2017-01-04T04:49:22.100Z,0
2017-01-04T04:51:30.270Z,0
2017-01-04T04:53:43.060Z,0
2017-01-04T04:55:55.566Z,0
2017-01-04T04:58:07.929Z,0
2017-01-04T05:00:21.096Z,0
2017-01-04T05:02:29.152Z,0
2017-01-04T05:04:42.895Z,0
2017-01-04T05:06:55.207Z,0
2017-01-04T05:09:08.498Z,0
2017-01-04T05:11:22.481Z,0
2017-01-04T05:13:30.477Z,0
2017-01-04T05:15:44.949Z,0
2017-01-04T05:17:57.352Z,0
2017-01-04T05:20:13.601Z,0
2017-01-04T05:22:22.136Z,0
2017-01-04T05:24:34.477Z,0
2017-01-04T05:26:41.823Z,0
2017-01-04T05:28:56.620Z,0
2017-01-04T05:31:08.911Z,0
2017-01-04T05:33:21.248Z,0
2017-01-04T05:35:33.607Z,0
2017-01-04T05:37:40.981Z,0
2017-01-04T05:39:49.173Z,0
2017-01-04T05:42:01.859Z,0
2017-01-04T05:44:09.066Z,0
2017-01-04T05:46:20.885Z,0
2017-01-04T05:48:33.423Z,0
2017-01-04T05:50:47.551Z,0
2017-01-04T05:53:00.308Z,0
2017-01-04T05:55:14.274Z,0
2017-01-04T05:57:27.065Z,0
2017-01-04T05:59:52.603Z,0
2017-01-04T06:02:20.583Z,0
2017-01-04T06:04:30.050Z,0
2017-01-04T06:06:39.316Z,0
2017-01-04T06:08:52.609Z,0
2017-01-04T06:11:05.629Z,0
2017-01-04T06:13:20.354Z,0
2017-01-04T06:15:32.650Z,0
2017-01-04T06:17:40.285Z,0
2017-01-04T06:19:52.597Z,0
2017-01-04T06:22:06.527Z,0
2017-01-04T06:24:18.822Z,0
2017-01-04T06:26:31.853Z,0
2017-01-04T06:28:41.238Z,0
2017-01-04T06:30:48.789Z,0
2017-01-04T06:33:01.187Z,0
2017-01-04T06:35:08.680Z,0
2017-01-04T06:37:16.680Z,4
2017-01-04T06:39:32.046Z,0
2017-01-04T06:41:42.302Z,4
2017-01-04T06:43:55.285Z,4
2017-01-04T06:46:08.998Z,4
2017-01-04T06:48:22.163Z,8
2017-01-04T06:50:35.447Z,12
2017-01-04T06:52:48.541Z,16
2017-01-04T06:55:01.008Z,20
2017-01-04T06:57:13.531Z,28
2017-01-04T06:59:22.009Z,36
2017-01-04T07:01:35.265Z,44
2017-01-04T07:03:42.825Z,44
2017-01-04T07:05:58.299Z,64
2017-01-04T07:08:06.375Z,84
2017-01-04T07:10:19.996Z,100
2017-01-04T07:12:33.499Z,100
2017-01-04T07:14:41.353Z,124
2017-01-04T07:16:54.052Z,148
2017-01-04T07:19:06.398Z,160
2017-01-04T07:21:22.084Z,192
2017-01-04T07:23:36.626Z,216
2017-01-04T07:25:49.573Z,260
2017-01-04T07:27:57.611Z,292
2017-01-04T07:30:10.761Z,308
2017-01-04T07:32:17.938Z,332
2017-01-04T07:34:30.208Z,344
2017-01-04T07:36:37.661Z,420
2017-01-04T07:38:50.818Z,648
2017-01-04T07:40:58.300Z,860
2017-01-04T07:43:12.831Z,976
2017-01-04T07:45:31.083Z,1032
2017-01-04T07:47:44.901Z,792
2017-01-04T07:49:57.237Z,668
2017-01-04T07:52:09.891Z,508
2017-01-04T07:54:22.264Z,512
2017-01-04T07:56:29.947Z,520
2017-01-04T07:58:42.315Z,492
2017-01-04T08:00:49.673Z,536
2017-01-04T08:03:02.043Z,628
2017-01-04T08:05:14.302Z,888
2017-01-04T08:07:26.532Z,964
2017-01-04T08:09:38.809Z,888
2017-01-04T08:11:51.176Z,816
2017-01-04T08:14:03.524Z,796
2017-01-04T08:16:10.709Z,860
2017-01-04T08:18:23.580Z,844
2017-01-04T08:20:35.719Z,880
2017-01-04T08:22:48.405Z,860
2017-01-04T08:25:01.167Z,896
2017-01-04T08:27:13.413Z,880
2017-01-04T08:29:25.871Z,956
2017-01-04T08:31:28.065Z,1048
2017-01-04T08:33:40.221Z,1036
2017-01-04T08:35:52.421Z,1204
2017-01-04T08:38:04.535Z,1240
2017-01-04T08:40:16.877Z,1136
2017-01-04T08:42:29.212Z,1064
2017-01-04T08:44:41.442Z,1032
2017-01-04T08:46:53.709Z,1184
2017-01-04T08:49:00.940Z,1384
2017-01-04T08:51:13.303Z,1408
2017-01-04T08:53:25.688Z,1260
2017-01-04T08:55:38.043Z,1624
2017-01-04T08:57:54.242Z,1740
2017-01-04T09:00:08.341Z,2080
2017-01-04T09:02:24.034Z,1976
2017-01-04T09:04:36.275Z,2016
2017-01-04T09:06:48.687Z,2388
2017-01-04T09:08:59.233Z,2024
2017-01-04T09:11:11.577Z,2060
2017-01-04T09:13:23.896Z,1944
2017-01-04T09:15:36.124Z,1908
2017-01-04T09:17:50.416Z,1696
2017-01-04T09:20:02.910Z,2028
2017-01-04T09:22:15.623Z,2556
2017-01-04T09:24:22.887Z,2516
2017-01-04T09:26:35.128Z,2304
2017-01-04T09:28:47.564Z,2356
2017-01-04T09:30:59.914Z,2372
2017-01-04T09:33:12.207Z,2508
2017-01-04T09:35:25.009Z,2664
2017-01-04T09:38:13.621Z,3172
2017-01-04T09:40:53.204Z,3064
2017-01-04T09:43:05.763Z,2936
2017-01-04T09:45:13.195Z,3096
2017-01-04T09:47:25.407Z,3060
2017-01-04T09:49:37.578Z,2860
2017-01-04T09:51:50.320Z,3116
2017-01-04T09:54:03.405Z,3804
2017-01-04T09:56:15.842Z,4044
2017-01-04T09:58:24.759Z,4200
2017-01-04T10:00:32.167Z,4088
2017-01-04T10:02:39.575Z,4164
2017-01-04T10:04:52.026Z,4412
2017-01-04T10:07:04.467Z,4948
2017-01-04T10:09:11.846Z,5068
2017-01-04T10:11:24.091Z,4868
2017-01-04T10:13:36.771Z,4556
2017-01-04T10:15:44.129Z,4456
2017-01-04T10:17:56.462Z,4356
2017-01-04T10:20:08.822Z,4008
2017-01-04T10:22:21.072Z,3780
2017-01-04T10:24:33.385Z,4016
2017-01-04T10:26:45.544Z,4312
2017-01-04T10:28:58.098Z,4088
2017-01-04T10:31:05.322Z,3632
2017-01-04T10:33:17.483Z,3284
2017-01-04T10:35:19.908Z,3144
2017-01-04T10:37:32.345Z,3236
2017-01-04T10:39:44.779Z,3236
2017-01-04T10:41:56.915Z,3108
2017-01-04T10:44:09.052Z,3212
2017-01-04T10:46:21.279Z,3300
2017-01-04T10:48:28.505Z,3016
2017-01-04T10:50:40.867Z,2760
2017-01-04T10:52:53.123Z,2952
2017-01-04T10:55:05.359Z,3636
2017-01-04T10:57:12.675Z,3728
2017-01-04T10:59:24.921Z,3172
2017-01-04T11:01:37.135Z,3460
2017-01-04T11:03:49.332Z,3272
2017-01-04T11:05:51.604Z,3472
2017-01-04T11:07:58.844Z,3236
2017-01-04T11:10:10.975Z,2900
2017-01-04T11:12:23.169Z,2924
2017-01-04T11:14:35.430Z,2704
2017-01-04T11:16:47.806Z,2864
2017-01-04T11:19:00.159Z,2996
2017-01-04T11:21:12.332Z,3200
2017-01-04T11:23:24.515Z,3180
2017-01-04T11:27:45.872Z,2612
2017-01-04T11:29:58.144Z,2924
2017-01-04T11:32:10.279Z,2992
2017-01-04T11:34:22.562Z,3024
2017-01-04T11:36:34.937Z,2908
2017-01-04T11:38:47.071Z,3036
2017-01-04T11:40:59.266Z,3244
2017-01-04T11:43:11.511Z,3756
2017-01-04T11:45:19.237Z,3188
2017-01-04T11:47:31.630Z,3416
2017-01-04T11:49:44.009Z,3272
2017-01-04T11:54:06.828Z,3320
2017-01-04T11:56:14.297Z,2912
2017-01-04T11:58:26.687Z,2724
2017-01-04T12:00:38.923Z,2516
2017-01-04T12:02:57.165Z,2532
2017-01-04T12:05:10.685Z,2404
2017-01-04T12:07:23.091Z,2300
2017-01-04T12:09:35.392Z,2124
2017-01-04T12:11:47.667Z,1896
2017-01-04T12:13:59.992Z,1668
2017-01-04T12:16:12.156Z,1732
2017-01-04T12:18:24.387Z,1796
2017-01-04T12:20:36.559Z,2084
2017-01-04T12:22:48.848Z,2168
2017-01-04T12:25:01.282Z,2228
2017-01-04T12:27:13.624Z,1792
2017-01-04T12:29:25.877Z,1868
2017-01-04T12:31:36.624Z,1768
2017-01-04T12:33:43.993Z,1648
2017-01-04T12:35:56.278Z,1556
2017-01-04T12:38:08.506Z,1720
2017-01-04T12:40:20.713Z,1812
2017-01-04T12:42:32.887Z,1688
2017-01-04T12:44:45.456Z,1748
2017-01-04T12:46:58.126Z,1756
2017-01-04T12:49:05.625Z,1508
2017-01-04T12:51:17.884Z,1540
2017-01-04T12:53:33.017Z,1636
2017-01-04T12:55:40.219Z,1272
2017-01-04T12:57:52.513Z,1368
2017-01-04T13:00:04.850Z,1304
2017-01-04T13:02:17.168Z,1208
2017-01-04T13:04:29.423Z,1236
2017-01-04T13:06:41.728Z,1256
2017-01-04T13:08:54.227Z,1280
2017-01-04T13:11:06.603Z,1760
2017-01-04T13:13:18.911Z,1888
2017-01-04T13:15:31.308Z,2088
2017-01-04T13:17:43.592Z,1844
2017-01-04T13:19:55.864Z,2064
2017-01-04T13:22:08.864Z,1788
2017-01-04T13:24:21.226Z,1464
2017-01-04T13:26:33.406Z,1320
2017-01-04T13:28:40.618Z,1080
2017-01-04T13:30:52.940Z,1464
2017-01-04T13:33:05.179Z,1608
2017-01-04T13:35:17.500Z,1452
2017-01-04T13:37:29.847Z,1388
2017-01-04T13:39:42.086Z,1664
2017-01-04T13:41:54.619Z,1308
2017-01-04T13:44:01.914Z,980
2017-01-04T13:46:14.277Z,1000
2017-01-04T13:48:26.726Z,976
2017-01-04T13:50:39.178Z,772
2017-01-04T13:52:51.551Z,656
2017-01-04T13:54:58.910Z,628
2017-01-04T13:57:11.292Z,520
2017-01-04T13:59:23.743Z,460
2017-01-04T14:01:36.214Z,416
2017-01-04T14:03:48.628Z,488
2017-01-04T14:05:55.861Z,464
2017-01-04T14:08:08.174Z,412
2017-01-04T14:10:15.461Z,408
2017-01-04T14:12:27.718Z,352
2017-01-04T14:14:35.133Z,380
2017-01-04T14:16:47.326Z,444
2017-01-04T14:18:59.912Z,592
2017-01-04T14:21:02.223Z,568
2017-01-04T14:23:14.439Z,560
2017-01-04T14:25:26.760Z,632
2017-01-04T14:27:39.255Z,708
2017-01-04T14:29:51.533Z,640
2017-01-04T14:32:03.746Z,588
2017-01-04T14:34:16.133Z,632
2017-01-04T14:36:28.457Z,696
2017-01-04T14:38:40.909Z,716
2017-01-04T14:40:53.358Z,736
2017-01-04T14:43:05.664Z,764
2017-01-04T14:45:18.156Z,672
2017-01-04T14:47:30.450Z,616
2017-01-04T14:49:42.716Z,736
2017-01-04T14:51:55.159Z,660
2017-01-04T14:54:07.377Z,620
2017-01-04T14:56:19.793Z,580
2017-01-04T14:58:27.055Z,528
2017-01-04T15:00:34.417Z,556
2017-01-04T15:02:46.932Z,500
2017-01-04T15:04:49.453Z,488
2017-01-04T15:07:01.824Z,372
2017-01-04T15:09:15.388Z,316
2017-01-04T15:11:27.776Z,284
2017-01-04T15:13:40.110Z,280
2017-01-04T15:15:52.688Z,212
2017-01-04T15:18:05.260Z,164
2017-01-04T15:20:17.502Z,128
2017-01-04T15:22:29.861Z,132
2017-01-04T15:24:37.350Z,108
2017-01-04T15:26:49.772Z,88
2017-01-04T15:28:57.077Z,68
2017-01-04T15:31:09.357Z,72
2017-01-04T15:33:21.628Z,60
2017-01-04T15:35:34.036Z,40
2017-01-04T15:37:46.527Z,44
2017-01-04T15:40:01.564Z,44
2017-01-04T15:42:15.515Z,36
2017-01-04T15:44:30.863Z,32
2017-01-04T15:46:44.242Z,20
2017-01-04T15:48:58.093Z,16
2017-01-04T15:51:10.331Z,12
2017-01-04T15:53:22.752Z,12
2017-01-04T15:55:35.235Z,8
2017-01-04T15:57:47.513Z,4
2017-01-04T15:59:59.876Z,4
2017-01-04T16:02:12.097Z,0
2017-01-04T16:04:24.373Z,4
2017-01-04T16:06:36.775Z,4
2017-01-04T16:08:44.217Z,0
2017-01-04T16:10:56.389Z,0
2017-01-04T16:13:08.744Z,0
2017-01-04T16:15:21.151Z,0
2017-01-04T16:17:33.572Z,0
2017-01-04T16:19:46.004Z,0
2017-01-04T16:21:58.267Z,0
2017-01-04T16:24:10.414Z,0
2017-01-04T16:26:22.805Z,0
2017-01-04T16:28:35.124Z,0
2017-01-04T16:30:42.377Z,0
2017-01-04T16:32:52.910Z,0
2017-01-04T16:35:05.198Z,0
2017-01-04T16:37:17.460Z,0
2017-01-04T16:39:29.743Z,0
2017-01-04T16:41:42.071Z,0
2017-01-04T16:44:11.679Z,0
2017-01-04T16:46:18.969Z,0
2017-01-04T16:48:32.081Z,0
2017-01-04T16:50:44.352Z,0
2017-01-04T16:52:55.078Z,0
2017-01-04T16:55:07.427Z,0
2017-01-04T16:57:19.636Z,0
2017-01-04T16:59:34.542Z,0
2017-01-04T17:01:41.913Z,0
2017-01-04T17:03:54.214Z,0
2017-01-04T17:06:06.527Z,0
2017-01-04T17:08:18.921Z,0
2017-01-04T17:10:31.340Z,0
2017-01-04T17:12:43.572Z,0
2017-01-04T17:14:55.924Z,0
2017-01-04T17:17:08.291Z,0
2017-01-04T17:19:20.532Z,0
2017-01-04T17:21:32.978Z,0
2017-01-04T17:23:45.149Z,0
2017-01-04T17:25:57.503Z,0
2017-01-04T17:28:09.701Z,0
2017-01-04T17:30:22.058Z,0
2017-01-04T17:32:34.379Z,0
2017-01-04T17:34:41.600Z,0
2017-01-04T17:36:54.026Z,0
2017-01-04T17:39:06.271Z,0
2017-01-04T17:41:18.499Z,0
2017-01-04T17:43:25.847Z,0
2017-01-04T17:45:33.239Z,0
2017-01-04T17:47:40.665Z,0
2017-01-04T17:49:53.025Z,0
2017-01-04T17:52:05.311Z,0
2017-01-04T17:54:12.594Z,0
2017-01-04T17:56:24.788Z,0
2017-01-04T17:58:37.426Z,0
2017-01-04T18:00:44.692Z,0
2017-01-04T18:02:57.368Z,0
2017-01-04T18:05:09.742Z,0
2017-01-04T18:07:22.052Z,0
2017-01-04T18:09:34.604Z,0
2017-01-04T18:11:47.037Z,0
2017-01-04T18:13:59.364Z,0
2017-01-04T18:16:06.787Z,0
2017-01-04T18:18:19.154Z,0
2017-01-04T18:20:26.554Z,0
2017-01-04T18:22:33.928Z,0
2017-01-04T18:24:41.363Z,0
2017-01-04T18:26:53.733Z,0
2017-01-04T18:29:05.969Z,0
2017-01-04T18:31:18.275Z,0
2017-01-04T18:33:30.484Z,0
2017-01-04T18:35:42.734Z,0
2017-01-04T18:37:55.048Z,0
2017-01-04T18:40:07.226Z,0
2017-01-04T18:42:19.653Z,0
2017-01-04T18:44:26.936Z,0
2017-01-04T18:46:39.498Z,0
2017-01-04T18:48:51.974Z,0
2017-01-04T18:51:04.438Z,0
2017-01-04T18:53:16.767Z,0
2017-01-04T18:55:29.880Z,0
2017-01-04T18:57:42.153Z,0
2017-01-04T18:59:54.747Z,0
2017-01-04T19:02:07.429Z,0
2017-01-04T19:04:19.858Z,0
2017-01-04T19:06:34.737Z,0
2017-01-04T19:08:47.415Z,0
2017-01-04T19:10:54.808Z,0
2017-01-04T19:13:07.076Z,0
2017-01-04T19:15:41.416Z,0
2017-01-04T19:17:54.507Z,0
2017-01-04T19:20:07.117Z,0
2017-01-04T19:22:20.767Z,0
2017-01-04T19:24:33.359Z,0
2017-01-04T19:26:46.088Z,0
2017-01-04T19:28:58.463Z,0
2017-01-04T19:31:11.014Z,0
2017-01-04T19:33:23.519Z,0
2017-01-04T19:35:31.045Z,0
2017-01-04T19:37:47.906Z,0
2017-01-04T19:40:00.686Z,0
2017-01-04T19:42:13.185Z,0
2017-01-04T19:44:26.178Z,0
2017-01-04T19:46:38.587Z,0
2017-01-04T19:48:51.297Z,0
2017-01-04T19:51:03.777Z,0
2017-01-04T19:53:16.382Z,0
2017-01-04T19:55:28.868Z,0
2017-01-04T19:57:41.339Z,0
2017-01-04T19:59:53.688Z,0
2017-01-04T20:02:06.016Z,0
2017-01-04T20:04:18.861Z,0
2017-01-04T20:06:42.482Z,0
2017-01-04T20:09:12.885Z,0
2017-01-04T20:11:35.262Z,0
2017-01-04T20:13:48.246Z,0
2017-01-04T20:16:19.055Z,0
2017-01-04T20:18:52.464Z,0
2017-01-04T20:21:25.342Z,0
2017-01-04T20:23:47.035Z,0
2017-01-04T20:26:02.903Z,0
2017-01-04T20:28:15.964Z,0
2017-01-04T20:30:29.362Z,0
2017-01-04T20:32:41.866Z,0
2017-01-04T20:34:55.128Z,0
2017-01-04T20:37:07.918Z,0
2017-01-04T20:39:21.028Z,0
2017-01-04T20:41:34.779Z,0
2017-01-04T20:43:42.778Z,0
2017-01-04T20:45:56.278Z,0
2017-01-04T20:48:03.912Z,0
2017-01-04T20:50:17.168Z,0
2017-01-04T20:52:29.591Z,0
2017-01-04T20:54:42.184Z,0
2017-01-04T20:56:58.629Z,0
2017-01-04T20:59:06.803Z,0
2017-01-04T21:01:19.070Z,0
2017-01-04T21:03:32.346Z,0
2017-01-04T21:05:44.675Z,0
2017-01-04T21:07:57.241Z,0
2017-01-04T21:10:09.751Z,0
2017-01-04T21:12:17.210Z,0
2017-01-04T21:14:29.571Z,0
2017-01-04T21:16:42.026Z,0
2017-01-04T21:18:54.407Z,0
2017-01-04T21:21:07.223Z,0
2017-01-04T21:23:19.607Z,0
2017-01-04T21:25:33.351Z,0
2017-01-04T21:27:46.478Z,0
2017-01-04T21:29:59.265Z,0
2017-01-04T21:32:11.798Z,0
2017-01-04T21:34:24.426Z,0
2017-01-04T21:36:37.505Z,0
2017-01-04T21:38:50.261Z,0
2017-01-04T21:41:03.357Z,0
2017-01-04T21:43:15.911Z,0
2017-01-04T21:45:29.261Z,0
2017-01-04T21:47:41.860Z,0
2017-01-04T21:49:49.808Z,0
2017-01-04T21:51:57.684Z,0
2017-01-04T21:54:11.804Z,0
2017-01-04T21:56:25.566Z,0
2017-01-04T21:58:33.351Z,0
2017-01-04T22:00:47.920Z,0
2017-01-04T22:03:00.624Z,0
2017-01-04T22:05:13.065Z,0
2017-01-04T22:07:26.117Z,0
2017-01-04T22:09:38.752Z,0
2017-01-04T22:11:52.362Z,0
2017-01-04T22:14:04.695Z,0
2017-01-04T22:16:17.344Z,0
2017-01-04T22:18:26.159Z,0
2017-01-04T22:20:35.187Z,0
2017-01-04T22:22:47.776Z,0
2017-01-04T22:25:01.008Z,0
2017-01-04T22:27:14.038Z,0
2017-01-04T22:29:26.453Z,0
2017-01-04T22:31:39.298Z,0
2017-01-04T22:33:51.993Z,0
2017-01-04T22:35:59.527Z,0
2017-01-04T22:38:11.790Z,0
2017-01-04T22:40:24.613Z,0
2017-01-04T22:42:37.570Z,0
2017-01-04T22:44:50.118Z,0
2017-01-04T22:47:03.909Z,0
2017-01-04T22:49:16.737Z,0
2017-01-04T22:51:29.235Z,0
2017-01-04T22:53:43.694Z,0
2017-01-04T22:56:00.876Z,0
2017-01-04T22:58:19.095Z,0
2017-01-04T23:00:34.622Z,0
2017-01-04T23:02:47.245Z,0
2017-01-04T23:05:01.017Z,0
2017-01-04T23:07:15.813Z,0
2017-01-04T23:09:28.861Z,0
2017-01-04T23:11:42.520Z,0
2017-01-04T23:13:54.979Z,0
2017-01-04T23:16:08.184Z,0
2017-01-04T23:18:20.703Z,0
2017-01-04T23:20:34.946Z,0
2017-01-04T23:22:48.167Z,0
2017-01-04T23:25:01.634Z,0
2017-01-04T23:27:15.197Z,0
2017-01-04T23:29:29.691Z,0
2017-01-04T23:31:43.174Z,0
2017-01-04T23:33:56.794Z,0
2017-01-04T23:36:04.680Z,0
2017-01-04T23:38:19.238Z,0
2017-01-04T23:40:32.751Z,0
2017-01-04T23:42:46.117Z,0
2017-01-04T23:44:59.693Z,0
2017-01-04T23:47:07.030Z,0
2017-01-04T23:49:19.495Z,0
2017-01-04T23:51:34.168Z,0
2017-01-04T23:53:42.114Z,0
2017-01-04T23:55:55.273Z,0
2017-01-04T23:58:07.763Z,0
